To NAV CANADA Home Page Login to a new session Search on AWWS site Disclaimer Vers la page française équivalente Tips FAQ What's new on the site To the Forecasts and Observations / NOTAM section To "File a Flight Plan" website Publications and other links Update of the User's profile FIC Telephone Numbers My Weather Data Folder Route Weather Data Regional Weather Data Local Weather Data To the Forecasts and Observations / NOTAM section
Request Generated 03/19/2019 at 23:04:34 UTC . Weather information available at that time is displayed.

METAR/TAF

ROBERVAL/QC    

METAR CYRJ 192300Z 15003KT 40SM FEW080 FEW220 M11/M19 A3024 RMK AC1CI1 AC TR CI TR SLP261=
METAR CYRJ 192200Z 12006KT 40SM FEW100 M10/M19 A3025 RMK AS1 AS TR SLP263=
METAR CYRJ 192100Z 13006KT 40SM FEW040 M10/M19 A3026 RMK SC1 SC TR SLP266=

TAF CYRJ 191938Z 1920/2002 VRB03KT P6SM SKC
RMK NXT FCST WILL BE ISSUED AT 201145Z=
Your time UTC time
Weather data provided by Environment Canada and NAV CANADA